PHL weather

Philadelphia International Airport
Philadelphia, Pennsylvania, United States

Public forecast

Using degrees Fahrenheit for public forecast. Weather courtesy of forecast.io.

METAR (pilot weather report)

Retrieved 2017/06/28 03:54 UTC (58 minutes ago):

KPHL 280354Z 30011KT 10SM FEW090 21/08 A3006 RMK AO2 SLP179 T02060083

TAF (pilot weather forecast)

Forecast is more than 12 hours old.

Retrieved 2017/06/27 00:44 UTC (1 day ago):

TAF KPHL 272339Z 2800/2906 28012KT P6SM VCSH SCT070 FM280200 27006KT P6SM SCT120 FM281500 29011KT P6SM SCT040 FM282200 26007KT P6SM SCT060